Articles

Pooleys Chart - EITM

Share

Trim Flying Club Pooleys Chart for Trim Airfield

Share

Trim Flying Club goes to the Aran Islands

Learn to fly at Trim Flying Club

Rainfall Radar Now

Atlantic Charts Pressure - Today

Atlantic Charts Rainfall - Today

 
 

Atlantic Charts Pressure - Tomorrow

Sunrise Sunset

Click for Dublin, Ireland Forecast

Aviation WX Dublin EIDW

[source: ADDS]
METAR
EIDW 310000Z 27010KT 9999 FEW025 SCT200 11/09 Q1018 NOSIG =
TAF
TAF EIDW 302300Z 3100/3124 27008KT 9999 FEW018 SCT040 BECMG 3102/3105 24006KT BECMG 3110/3112 20010KT BECMG 3118/3121 23008KT TEMPO 3118/3123 5000 -RADZ BKN013 PROB30 TEMPO 3118/3123 4000 BKN008 BECMG 3122/3124 29010KT =